Time;durP1;ratioP1;P1;durP2;ratioP2;P2;SDS_P1;SDS_P2;PMS_P1;PMS_P2;Temp;Humidity;BMP_temperature;BMP_pressure;BME280_temperature;BME280_humidity;BME280_pressure;Samples;Min_cycle;Max_cycle;Signal;HPM_P1;HPM_P2
2023/03/01 00:02:35;;;;;;;21.33;14.93;;;1.40;69.00;;;;;;6241638;28;20202;-57
2023/03/01 00:05:35;;;;;;;18.50;13.73;;;1.40;69.30;;;;;;6266678;28;20198;-52
2023/03/01 00:08:36;;;;;;;20.57;14.30;;;1.40;69.20;;;;;;6227816;28;20222;-54
2023/03/01 00:11:38;;;;;;;18.40;13.23;;;1.40;68.70;;;;;;6262337;28;20186;-55
2023/03/01 00:14:38;;;;;;;20.33;13.90;;;1.40;68.80;;;;;;6260134;28;20630;-52
2023/03/01 00:17:39;;;;;;;20.43;13.90;;;1.40;68.90;;;;;;6242470;28;20292;-55
2023/03/01 00:20:40;;;;;;;17.63;14.13;;;1.40;69.20;;;;;;6234623;28;20194;-56
2023/03/01 00:23:41;;;;;;;20.60;13.77;;;1.40;69.10;;;;;;6253500;28;20205;-54
2023/03/01 00:26:42;;;;;;;15.37;12.40;;;1.40;69.40;;;;;;6273784;28;20201;-57
2023/03/01 00:29:42;;;;;;;17.00;12.80;;;1.40;69.50;;;;;;6245786;28;20266;-55
2023/03/01 00:32:43;;;;;;;16.37;12.47;;;1.40;70.00;;;;;;6232162;28;20193;-54
2023/03/01 00:35:44;;;;;;;20.27;13.90;;;1.40;70.10;;;;;;6265059;28;20193;-55
2023/03/01 00:38:45;;;;;;;19.10;12.80;;;1.40;70.10;;;;;;6257391;28;20190;-55
2023/03/01 00:41:46;;;;;;;18.87;13.03;;;1.40;69.90;;;;;;6254238;28;20225;-52
2023/03/01 00:44:46;;;;;;;18.57;12.97;;;1.40;69.90;;;;;;6256169;28;20193;-55
2023/03/01 00:47:49;;;;;;;17.50;12.53;;;1.40;70.10;;;;;;6247732;28;20221;-50
2023/03/01 00:50:49;;;;;;;19.03;14.07;;;1.40;70.30;;;;;;6268192;28;20253;-54
2023/03/01 00:53:52;;;;;;;19.13;14.03;;;1.40;70.10;;;;;;6243475;28;20185;-55
2023/03/01 00:56:53;;;;;;;19.87;14.10;;;1.40;69.90;;;;;;6251650;28;20218;-56
2023/03/01 00:59:53;;;;;;;19.10;13.10;;;1.40;69.20;;;;;;6247144;28;20183;-50
2023/03/01 01:02:54;;;;;;;18.83;13.50;;;1.40;69.10;;;;;;6264205;28;20191;-55
2023/03/01 01:05:55;;;;;;;19.87;13.27;;;1.40;69.50;;;;;;6251073;28;20186;-52
2023/03/01 01:08:56;;;;;;;19.13;13.40;;;1.40;70.00;;;;;;6256764;28;20209;-52
2023/03/01 01:11:57;;;;;;;19.83;13.83;;;1.50;70.30;;;;;;6268047;28;20186;-54
2023/03/01 01:14:57;;;;;;;21.43;14.50;;;1.50;70.00;;;;;;6263647;28;20216;-54
2023/03/01 01:17:58;;;;;;;20.50;13.63;;;1.40;69.80;;;;;;6262193;28;20187;-54
2023/03/01 01:21:04;;;;;;;17.47;13.53;;;1.50;69.40;;;;;;6245702;28;20202;-53
2023/03/01 01:24:05;;;;;;;19.20;14.37;;;1.50;69.10;;;;;;6269002;28;20268;-56
2023/03/01 01:27:07;;;;;;;20.37;14.23;;;1.50;68.90;;;;;;6261220;28;20185;-55
2023/03/01 01:30:08;;;;;;;18.83;12.73;;;1.50;68.80;;;;;;6263761;28;20233;-57
2023/03/01 01:33:08;;;;;;;20.33;14.27;;;1.50;69.30;;;;;;6249693;28;20186;-56
2023/03/01 01:36:09;;;;;;;18.40;13.27;;;1.50;69.80;;;;;;6250078;28;20197;-52
2023/03/01 01:39:13;;;;;;;17.17;13.30;;;1.50;69.90;;;;;;6250605;28;20205;-57
2023/03/01 01:42:18;;;;;;;17.10;12.00;;;1.50;69.70;;;;;;6266271;28;20198;-55
2023/03/01 01:45:32;;;;;;;19.63;12.50;;;1.60;69.70;;;;;;6266555;28;20288;-54
2023/03/01 01:48:47;;;;;;;16.70;11.97;;;1.60;69.80;;;;;;6257834;28;20206;-57
2023/03/01 01:51:53;;;;;;;17.40;12.80;;;1.50;69.90;;;;;;6261558;28;20186;-55
2023/03/01 01:55:03;;;;;;;16.60;12.57;;;1.60;69.90;;;;;;6257648;28;20195;-56
2023/03/01 01:58:07;;;;;;;19.67;13.03;;;1.60;69.70;;;;;;6253192;28;20186;-53
2023/03/01 02:01:07;;;;;;;18.70;12.57;;;1.60;70.00;;;;;;6273383;28;20197;-55
2023/03/01 02:04:08;;;;;;;19.73;12.17;;;1.50;70.30;;;;;;6256769;28;20239;-52
2023/03/01 02:07:19;;;;;;;20.07;13.40;;;1.50;70.50;;;;;;6249979;28;20195;-51
2023/03/01 02:10:22;;;;;;;20.27;13.20;;;1.50;70.30;;;;;;6251194;28;20186;-57
2023/03/01 02:13:23;;;;;;;19.10;14.70;;;1.60;70.20;;;;;;6255486;28;20205;-54
2023/03/01 02:16:26;;;;;;;21.97;15.40;;;1.60;70.20;;;;;;6263340;28;20194;-56
2023/03/01 02:19:43;;;;;;;21.13;14.87;;;1.60;70.00;;;;;;6248583;28;20277;-56
2023/03/01 02:22:46;;;;;;;19.83;14.40;;;1.60;70.20;;;;;;6272407;28;20192;-55
2023/03/01 02:26:04;;;;;;;20.70;13.93;;;1.50;69.70;;;;;;6256982;28;20281;-56
2023/03/01 02:29:05;;;;;;;18.87;14.53;;;1.50;69.70;;;;;;6264871;28;20234;-56
2023/03/01 02:32:06;;;;;;;19.20;13.53;;;1.50;69.70;;;;;;6257309;28;20190;-54
2023/03/01 02:35:11;;;;;;;19.73;13.93;;;1.60;69.80;;;;;;6254217;28;20194;-56
2023/03/01 02:38:12;;;;;;;19.43;13.53;;;1.60;69.40;;;;;;6273752;28;20187;-55
2023/03/01 02:41:17;;;;;;;18.73;13.30;;;1.60;69.00;;;;;;6250028;28;20192;-55
2023/03/01 02:44:19;;;;;;;18.63;13.47;;;1.60;68.80;;;;;;6259263;28;20201;-57
2023/03/01 02:47:19;;;;;;;18.80;12.37;;;1.50;68.80;;;;;;6269591;28;20243;-57
2023/03/01 02:51:04;;;;;;;16.07;11.80;;;1.50;68.70;;;;;;6251911;28;20181;-55
2023/03/01 02:54:12;;;;;;;19.03;13.47;;;1.50;68.80;;;;;;6257903;28;20205;-54
2023/03/01 02:57:14;;;;;;;16.83;12.00;;;1.50;69.00;;;;;;6261983;28;20183;-57
2023/03/01 03:00:41;;;;;;;20.63;13.60;;;1.50;68.80;;;;;;6257999;28;20190;-55
2023/03/01 03:03:42;;;;;;;20.37;13.67;;;1.50;69.00;;;;;;6266406;28;20470;-56
2023/03/01 03:06:44;;;;;;;18.67;13.13;;;1.50;69.20;;;;;;6261550;28;20197;-56
2023/03/01 03:09:45;;;;;;;20.03;13.73;;;1.60;69.30;;;;;;6262020;28;20209;-54
2023/03/01 03:12:54;;;;;;;19.67;13.27;;;1.60;70.00;;;;;;6251734;28;20190;-54
2023/03/01 03:15:56;;;;;;;18.10;12.23;;;1.60;69.80;;;;;;6265734;28;20213;-57
2023/03/01 03:19:04;;;;;;;18.73;12.77;;;1.70;69.80;;;;;;6238773;28;20195;-57
2023/03/01 03:22:05;;;;;;;18.07;13.43;;;1.60;70.00;;;;;;6264981;28;20199;-55
2023/03/01 03:25:11;;;;;;;17.87;13.33;;;1.60;70.20;;;;;;6269337;28;20192;-57
2023/03/01 03:28:12;;;;;;;20.37;14.33;;;1.60;70.20;;;;;;6250859;28;20246;-54
2023/03/01 03:31:12;;;;;;;20.17;14.27;;;1.60;70.20;;;;;;6266928;28;20268;-54
2023/03/01 03:34:17;;;;;;;17.97;13.60;;;1.60;70.40;;;;;;6263971;28;20178;-54
2023/03/01 03:40:40;;;;;;;18.07;12.13;;;1.60;70.60;;;;;;6246530;28;20218;-55
2023/03/01 03:43:43;;;;;;;18.63;13.43;;;1.60;70.70;;;;;;6262468;28;20190;-52
2023/03/01 03:46:43;;;;;;;18.63;13.70;;;1.70;70.90;;;;;;6244615;28;20190;-56
2023/03/01 03:49:44;;;;;;;17.77;13.80;;;1.70;71.00;;;;;;6254598;28;20259;-56
2023/03/01 03:52:45;;;;;;;17.17;13.10;;;1.70;71.00;;;;;;6234760;28;20189;-54
2023/03/01 03:55:49;;;;;;;17.37;12.90;;;1.70;70.50;;;;;;6266132;28;20186;-57
2023/03/01 03:58:49;;;;;;;21.00;13.43;;;1.70;70.50;;;;;;6268372;28;20195;-53
2023/03/01 04:01:50;;;;;;;20.27;13.87;;;1.60;70.90;;;;;;6248825;28;20224;-54
2023/03/01 04:04:51;;;;;;;17.63;13.60;;;;;;;;;;6251580;28;20190;-53
2023/03/01 04:08:00;;;;;;;19.87;14.53;;;1.60;71.80;;;;;;6247486;28;20256;-55
2023/03/01 04:11:25;;;;;;;18.33;12.67;;;1.60;71.70;;;;;;6253527;28;20190;-57
2023/03/01 04:14:24;;;;;;;19.57;13.07;;;1.60;71.80;;;;;;6254473;28;20179;-57
2023/03/01 04:17:24;;;;;;;17.70;13.27;;;1.60;71.60;;;;;;6244809;28;20190;-53
2023/03/01 04:20:28;;;;;;;18.07;13.10;;;1.60;70.70;;;;;;6260210;28;20194;-53
2023/03/01 04:23:29;;;;;;;17.70;12.67;;;1.50;70.50;;;;;;6258495;28;20213;-56
2023/03/01 04:26:29;;;;;;;21.23;14.47;;;1.50;70.50;;;;;;6272546;28;20185;-54
2023/03/01 04:29:30;;;;;;;18.07;13.30;;;1.60;70.50;;;;;;6253420;28;20241;-56
2023/03/01 04:32:31;;;;;;;20.40;13.77;;;1.60;70.50;;;;;;6262397;28;20197;-53
2023/03/01 04:35:32;;;;;;;21.43;14.20;;;1.60;70.50;;;;;;6248734;28;20197;-52
2023/03/01 04:38:33;;;;;;;19.50;13.10;;;1.60;70.50;;;;;;6262416;28;20186;-51
2023/03/01 04:41:34;;;;;;;18.73;14.13;;;1.60;70.40;;;;;;6267440;28;20186;-53
2023/03/01 04:44:35;;;;;;;18.73;13.73;;;1.60;70.30;;;;;;6240159;28;20261;-51
2023/03/01 04:47:38;;;;;;;19.57;13.60;;;1.60;69.80;;;;;;6224270;28;20194;-56
2023/03/01 04:50:38;;;;;;;19.80;14.40;;;1.60;69.70;;;;;;6256401;28;20191;-52
2023/03/01 04:53:40;;;;;;;20.80;13.60;;;1.60;69.70;;;;;;6271199;28;20182;-55
2023/03/01 04:56:41;;;;;;;20.13;13.97;;;1.60;70.10;;;;;;6273936;28;20265;-54
2023/03/01 04:59:41;;;;;;;17.43;13.27;;;1.60;70.40;;;;;;6258499;28;20218;-57
2023/03/01 05:02:43;;;;;;;20.27;14.30;;;1.60;70.50;;;;;;6241984;28;20205;-54
2023/03/01 05:05:45;;;;;;;16.50;12.80;;;1.60;70.50;;;;;;6244934;28;20190;-51
2023/03/01 05:08:46;;;;;;;18.47;13.20;;;1.50;70.40;;;;;;6278652;28;20206;-54
2023/03/01 05:11:47;;;;;;;20.37;14.27;;;1.50;70.40;;;;;;6262761;28;20190;-51
2023/03/01 05:14:48;;;;;;;18.83;13.70;;;1.50;70.00;;;;;;6233022;28;20215;-51
2023/03/01 05:17:49;;;;;;;18.37;13.57;;;1.50;69.80;;;;;;6256657;28;20189;-51
2023/03/01 05:20:49;;;;;;;17.77;12.73;;;1.50;70.50;;;;;;6257353;28;20190;-51
2023/03/01 05:23:50;;;;;;;19.10;13.40;;;1.50;70.50;;;;;;6240535;28;20213;-54
2023/03/01 05:26:54;;;;;;;19.53;14.33;;;1.60;70.50;;;;;;6245157;28;20191;-53
2023/03/01 05:29:56;;;;;;;18.97;13.47;;;1.70;69.80;;;;;;6260260;28;20230;-48
2023/03/01 05:32:56;;;;;;;20.43;14.07;;;1.60;70.00;;;;;;6264318;28;20240;-49
2023/03/01 05:35:59;;;;;;;19.10;13.73;;;1.60;70.20;;;;;;6260826;28;20186;-50
2023/03/01 05:39:00;;;;;;;18.60;14.53;;;1.50;70.40;;;;;;6259389;28;20205;-49
2023/03/01 05:42:01;;;;;;;18.57;14.80;;;1.60;69.90;;;;;;6245404;28;20189;-50
2023/03/01 05:45:02;;;;;;;20.03;13.63;;;1.60;69.50;;;;;;6224263;28;20191;-48
2023/03/01 05:48:04;;;;;;;21.10;14.63;;;1.60;69.90;;;;;;6249121;28;20225;-50
2023/03/01 05:51:06;;;;;;;19.73;14.67;;;1.60;70.00;;;;;;6264136;28;20197;-49
2023/03/01 05:54:07;;;;;;;18.87;14.00;;;1.60;70.40;;;;;;6245578;28;20197;-54
2023/03/01 05:57:07;;;;;;;20.23;14.20;;;1.60;70.70;;;;;;6228109;28;20193;-51
2023/03/01 06:00:09;;;;;;;18.00;14.23;;;1.60;70.80;;;;;;6240229;28;20198;-52
2023/03/01 06:03:12;;;;;;;17.80;13.13;;;1.60;70.90;;;;;;6266011;28;20195;-49
2023/03/01 06:06:13;;;;;;;21.07;14.43;;;1.60;70.80;;;;;;6246722;28;20253;-53
2023/03/01 06:09:14;;;;;;;17.87;13.17;;;1.70;70.50;;;;;;6254948;28;20210;-54
2023/03/01 06:12:15;;;;;;;20.40;13.60;;;1.70;70.60;;;;;;6262792;28;20196;-54
2023/03/01 06:15:16;;;;;;;21.30;14.83;;;1.70;70.50;;;;;;6236294;28;20185;-51
2023/03/01 06:18:17;;;;;;;17.57;14.10;;;1.70;70.80;;;;;;6233312;28;20201;-49
2023/03/01 06:21:18;;;;;;;20.00;14.10;;;1.80;71.10;;;;;;6235818;28;20197;-50
2023/03/01 06:24:18;;;;;;;20.90;15.17;;;1.80;71.00;;;;;;6254575;28;20294;-53
2023/03/01 06:27:19;;;;;;;19.60;14.07;;;1.90;70.90;;;;;;6256254;28;20204;-53
2023/03/01 06:30:22;;;;;;;23.27;15.60;;;1.90;70.50;;;;;;6236562;28;20234;-52
2023/03/01 06:33:24;;;;;;;20.03;14.20;;;1.90;69.90;;;;;;6246123;28;20228;-54
2023/03/01 06:36:24;;;;;;;20.27;14.00;;;1.90;69.90;;;;;;6229142;28;20209;-50
2023/03/01 06:39:27;;;;;;;14.63;12.37;;;1.90;70.10;;;;;;6236454;28;20185;-49
2023/03/01 06:42:28;;;;;;;18.93;14.17;;;1.90;69.40;;;;;;6259831;28;20206;-51
2023/03/01 06:45:29;;;;;;;17.77;13.40;;;2.00;69.90;;;;;;6236830;28;20190;-53
2023/03/01 06:48:29;;;;;;;18.37;13.37;;;2.10;70.30;;;;;;6230608;28;20257;-50
2023/03/01 06:51:30;;;;;;;16.97;12.80;;;2.10;70.20;;;;;;6245666;28;20190;-50
2023/03/01 06:54:31;;;;;;;18.83;14.17;;;2.20;70.30;;;;;;6261585;28;20260;-55
2023/03/01 06:57:32;;;;;;;19.37;13.00;;;2.30;69.60;;;;;;6240336;28;20193;-50
2023/03/01 07:00:33;;;;;;;19.87;13.43;;;2.30;69.20;;;;;;6236277;28;20268;-51
2023/03/01 07:03:33;;;;;;;17.20;13.00;;;2.30;69.00;;;;;;6248300;28;20708;-54
2023/03/01 07:06:34;;;;;;;17.87;13.20;;;2.30;68.90;;;;;;6268900;28;20207;-52
2023/03/01 07:09:35;;;;;;;19.77;13.43;;;2.40;68.10;;;;;;6235669;28;20209;-51
2023/03/01 07:12:35;;;;;;;17.93;12.87;;;2.40;67.80;;;;;;6255596;28;20190;-51
2023/03/01 07:15:36;;;;;;;18.57;14.17;;;2.40;67.30;;;;;;6244247;28;20208;-52
2023/03/01 07:18:37;;;;;;;17.43;13.37;;;2.50;67.70;;;;;;6232559;28;20216;-51
2023/03/01 07:21:40;;;;;;;19.47;13.13;;;2.50;68.10;;;;;;6247593;28;20199;-49
2023/03/01 07:24:42;;;;;;;19.63;14.37;;;2.50;68.30;;;;;;6246250;28;20198;-53
2023/03/01 07:27:42;;;;;;;18.97;13.63;;;2.50;68.20;;;;;;6251521;28;20234;-53
2023/03/01 07:30:43;;;;;;;23.17;16.67;;;2.50;67.70;;;;;;6247467;28;20196;-53
2023/03/01 07:33:44;;;;;;;21.67;15.10;;;2.50;66.80;;;;;;6250006;28;20196;-52
2023/03/01 07:36:45;;;;;;;22.40;16.63;;;2.60;65.40;;;;;;6261897;28;20198;-50
2023/03/01 07:39:45;;;;;;;23.90;16.27;;;2.70;64.80;;;;;;6237846;28;20232;-53
2023/03/01 07:42:46;;;;;;;20.17;15.03;;;2.70;65.30;;;;;;6248701;28;20191;-51
2023/03/01 07:45:47;;;;;;;20.53;14.23;;;2.70;65.80;;;;;;6254349;28;20193;-52
2023/03/01 07:48:48;;;;;;;20.80;14.97;;;2.80;65.60;;;;;;6231926;28;20636;-51
2023/03/01 07:51:48;;;;;;;20.67;14.87;;;2.90;65.50;;;;;;6250014;28;20292;-51
2023/03/01 07:54:49;;;;;;;24.93;17.07;;;3.00;65.00;;;;;;6242641;28;20193;-53
2023/03/01 07:57:50;;;;;;;20.63;15.17;;;3.00;65.00;;;;;;6253827;28;20253;-52
2023/03/01 08:00:50;;;;;;;23.37;15.43;;;3.10;65.10;;;;;;6229421;28;20203;-52
2023/03/01 08:03:51;;;;;;;20.50;15.37;;;3.10;66.00;;;;;;6267605;28;20193;-50
2023/03/01 08:06:52;;;;;;;23.33;16.13;;;3.10;67.10;;;;;;6254096;28;20199;-50
2023/03/01 08:09:53;;;;;;;23.10;16.83;;;3.10;67.30;;;;;;6261876;28;20210;-49
2023/03/01 08:12:54;;;;;;;21.97;16.00;;;3.10;65.70;;;;;;6245621;28;20209;-52
2023/03/01 08:16:00;;;;;;;22.07;16.50;;;3.10;66.50;;;;;;6246295;28;20201;-51
2023/03/01 08:19:08;;;;;;;21.00;16.37;;;3.10;66.70;;;;;;6246135;28;20248;-53
2023/03/01 08:22:09;;;;;;;23.77;16.60;;;3.20;65.80;;;;;;6264546;28;20282;-52
2023/03/01 08:25:10;;;;;;;25.43;16.40;;;3.30;65.70;;;;;;6245782;28;20186;-52
2023/03/01 08:28:11;;;;;;;26.60;17.47;;;;;;;;;;6257864;28;20241;-52
2023/03/01 08:31:20;;;;;;;23.27;17.43;;;3.30;65.30;;;;;;6275822;28;20210;-50
2023/03/01 08:34:20;;;;;;;27.33;16.93;;;3.50;63.40;;;;;;6273290;28;20222;-52
2023/03/01 08:37:21;;;;;;;23.30;17.00;;;3.50;62.50;;;;;;6253841;28;20192;-51
2023/03/01 08:40:22;;;;;;;25.03;16.17;;;;;;;;;;6264085;28;20193;-55
2023/03/01 08:43:24;;;;;;;19.43;14.50;;;3.60;62.10;;;;;;6237997;28;20205;-55
2023/03/01 08:46:30;;;;;;;19.43;14.33;;;3.80;59.60;;;;;;6252557;28;20194;-48
2023/03/01 08:49:32;;;;;;;18.83;14.03;;;4.00;58.40;;;;;;6249531;28;20223;-54
2023/03/01 08:52:33;;;;;;;21.00;14.03;;;4.00;58.50;;;;;;6261811;28;20194;-52
2023/03/01 08:55:34;;;;;;;17.70;14.03;;;3.90;58.50;;;;;;6251391;28;20195;-52
2023/03/01 08:58:35;;;;;;;17.20;13.17;;;3.90;58.40;;;;;;6249254;28;20198;-54
2023/03/01 09:01:36;;;;;;;18.97;13.63;;;4.00;58.90;;;;;;6249228;28;20209;-53
2023/03/01 09:04:37;;;;;;;22.97;15.03;;;3.90;58.70;;;;;;6261884;28;20188;-52
2023/03/01 09:07:38;;;;;;;17.90;13.40;;;4.00;58.80;;;;;;6252522;28;20492;-51
2023/03/01 09:10:39;;;;;;;18.47;13.43;;;4.10;58.90;;;;;;6240004;28;20328;-51
2023/03/01 09:13:40;;;;;;;19.63;13.93;;;4.20;59.00;;;;;;6258278;28;20255;-54
2023/03/01 09:16:40;;;;;;;19.30;14.37;;;4.30;58.70;;;;;;6232358;28;20244;-52
2023/03/01 09:19:41;;;;;;;20.47;15.60;;;4.40;58.20;;;;;;6261899;28;20265;-52
2023/03/01 09:22:42;;;;;;;23.77;16.43;;;4.40;58.40;;;;;;6257345;28;20197;-50
2023/03/01 09:25:42;;;;;;;23.53;15.07;;;4.50;58.30;;;;;;6255833;28;20201;-50
2023/03/01 09:28:46;;;;;;;22.67;16.10;;;4.40;58.60;;;;;;6253960;28;20250;-52
2023/03/01 09:31:49;;;;;;;20.17;16.43;;;4.40;58.60;;;;;;6254588;28;20217;-49
2023/03/01 09:35:04;;;;;;;20.70;14.77;;;4.50;58.90;;;;;;6273057;28;20193;-50
2023/03/01 09:38:05;;;;;;;19.60;14.87;;;4.50;59.40;;;;;;6238266;28;20217;-51
2023/03/01 09:41:18;;;;;;;19.80;14.40;;;4.50;58.50;;;;;;6238224;28;20197;-49
2023/03/01 09:44:24;;;;;;;21.63;15.13;;;4.50;58.20;;;;;;6255215;28;20186;-49
2023/03/01 09:47:30;;;;;;;21.23;15.20;;;4.40;57.90;;;;;;6265097;28;20239;-50
2023/03/01 09:50:39;;;;;;;20.70;15.37;;;4.40;57.90;;;;;;6270365;28;20214;-50
2023/03/01 09:53:39;;;;;;;21.50;14.60;;;4.20;59.00;;;;;;6263150;28;20193;-53
2023/03/01 09:56:47;;;;;;;19.50;15.60;;;4.20;59.10;;;;;;6249822;28;20186;-49
2023/03/01 10:00:07;;;;;;;19.90;13.97;;;4.30;59.20;;;;;;6257335;28;20331;-49
2023/03/01 10:03:30;;;;;;;18.90;14.23;;;4.30;58.30;;;;;;6248379;28;20195;-49
2023/03/01 10:06:31;;;;;;;20.30;12.93;;;4.40;58.10;;;;;;6264450;28;20190;-49
2023/03/01 10:09:36;;;;;;;17.17;13.83;;;4.40;58.10;;;;;;6260521;28;20213;-53
2023/03/01 10:12:41;;;;;;;18.47;13.80;;;4.40;58.20;;;;;;6259451;28;20178;-52
2023/03/01 10:16:01;;;;;;;18.00;13.93;;;4.50;58.20;;;;;;6263420;28;20186;-50
2023/03/01 10:19:04;;;;;;;21.27;14.57;;;4.50;57.90;;;;;;6259974;28;20201;-52
2023/03/01 10:22:21;;;;;;;18.20;14.87;;;4.60;57.90;;;;;;6262121;28;20269;-50
2023/03/01 10:25:46;;;;;;;21.17;14.17;;;4.70;59.40;;;;;;6252036;28;20205;-51
2023/03/01 10:28:47;;;;;;;23.97;14.63;;;4.70;58.10;;;;;;6248543;28;20234;-51
2023/03/01 10:31:52;;;;;;;20.57;14.97;;;4.70;57.50;;;;;;6269520;28;20228;-49
2023/03/01 10:34:53;;;;;;;21.13;14.80;;;4.70;58.60;;;;;;6250381;28;20241;-51
2023/03/01 10:38:09;;;;;;;17.90;14.53;;;4.70;57.60;;;;;;6265122;28;20193;-49
2023/03/01 10:41:10;;;;;;;20.27;14.47;;;4.70;58.30;;;;;;6270337;28;20189;-49
2023/03/01 10:44:44;;;;;;;19.10;14.97;;;4.70;58.40;;;;;;6260119;28;20190;-49
2023/03/01 10:47:45;;;;;;;20.17;14.97;;;4.70;58.20;;;;;;6261787;28;20225;-50
2023/03/01 10:50:48;;;;;;;20.07;14.33;;;4.70;59.40;;;;;;6257981;28;20198;-51
2023/03/01 10:53:51;;;;;;;21.40;15.27;;;4.50;59.60;;;;;;6253251;28;20199;-50
2023/03/01 10:56:56;;;;;;;23.67;16.33;;;4.50;60.80;;;;;;6257658;28;20191;-49
2023/03/01 11:00:18;;;;;;;23.13;15.37;;;4.40;61.70;;;;;;6257635;28;20198;-50
2023/03/01 11:03:28;;;;;;;20.23;14.93;;;4.30;61.30;;;;;;6252189;28;20191;-50
2023/03/01 11:06:28;;;;;;;24.60;15.93;;;4.30;62.10;;;;;;6255234;28;20676;-50
2023/03/01 11:09:39;;;;;;;22.90;15.10;;;4.40;62.10;;;;;;6241990;28;20222;-50
2023/03/01 11:12:40;;;;;;;25.30;16.53;;;4.20;62.70;;;;;;6269993;28;20206;-49
2023/03/01 11:15:42;;;;;;;22.63;17.20;;;4.20;63.70;;;;;;6254446;28;20201;-54
2023/03/01 11:18:42;;;;;;;21.47;16.60;;;4.20;66.60;;;;;;6241010;28;20190;-48
2023/03/01 11:22:19;;;;;;;23.40;16.57;;;4.20;66.70;;;;;;6259929;28;20194;-50
2023/03/01 11:25:25;;;;;;;23.30;16.60;;;4.00;68.70;;;;;;6269037;28;20256;-51
2023/03/01 11:28:29;;;;;;;21.63;16.70;;;4.00;68.40;;;;;;6267997;28;20237;-50
2023/03/01 11:31:31;;;;;;;22.87;16.60;;;4.00;68.80;;;;;;6247465;28;20217;-50
2023/03/01 11:35:02;;;;;;;19.97;14.90;;;4.10;68.20;;;;;;6246174;28;20233;-49
2023/03/01 11:38:09;;;;;;;22.53;17.50;;;4.20;68.60;;;;;;6254447;28;20194;-52
2023/03/01 11:41:43;;;;;;;21.73;15.70;;;4.40;67.80;;;;;;6262463;28;20327;-50
2023/03/01 11:44:47;;;;;;;22.53;15.60;;;4.60;67.40;;;;;;6242976;28;20236;-50
2023/03/01 11:48:15;;;;;;;20.80;15.17;;;4.90;66.70;;;;;;6258064;28;20193;-50
2023/03/01 11:51:41;;;;;;;24.03;15.87;;;5.10;64.70;;;;;;6287515;28;20193;-50
2023/03/01 11:55:06;;;;;;;25.27;16.57;;;5.30;62.30;;;;;;6261050;28;20207;-50
2023/03/01 11:58:18;;;;;;;21.17;16.00;;;5.30;63.10;;;;;;6247362;28;20238;-49
2023/03/01 12:01:46;;;;;;;22.10;16.90;;;5.50;61.20;;;;;;6252816;28;20202;-51
2023/03/01 12:05:15;;;;;;;22.53;15.90;;;5.50;59.80;;;;;;6246802;28;20200;-49
2023/03/01 12:08:29;;;;;;;20.63;15.20;;;5.50;59.80;;;;;;6247309;28;20367;-49
2023/03/01 12:11:49;;;;;;;21.10;15.10;;;5.50;60.20;;;;;;6262882;28;20186;-49
2023/03/01 12:15:09;;;;;;;23.33;15.47;;;5.60;59.30;;;;;;6255561;28;20222;-49
2023/03/01 12:18:13;;;;;;;17.57;14.67;;;5.70;58.50;;;;;;6270629;28;20233;-49
2023/03/01 12:21:39;;;;;;;22.13;15.27;;;5.70;58.90;;;;;;6261850;28;20278;-48
2023/03/01 12:24:55;;;;;;;19.47;15.63;;;5.80;58.80;;;;;;6266693;28;20187;-53
2023/03/01 12:28:22;;;;;;;23.43;16.17;;;5.80;57.10;;;;;;6264988;28;20330;-53
2023/03/01 12:31:47;;;;;;;24.37;17.07;;;6.00;57.40;;;;;;6250432;28;20265;-51
2023/03/01 12:35:06;;;;;;;21.20;14.57;;;6.00;57.00;;;;;;6254924;28;20194;-50
2023/03/01 12:38:28;;;;;;;21.17;13.97;;;6.20;57.40;;;;;;6282136;28;20214;-50
2023/03/01 12:42:09;;;;;;;17.90;14.27;;;6.30;56.60;;;;;;6268667;28;20195;-54
2023/03/01 12:45:34;;;;;;;21.20;14.80;;;6.30;56.00;;;;;;6270638;28;20194;-50
2023/03/01 12:48:59;;;;;;;21.77;14.87;;;6.20;56.10;;;;;;6268431;28;20202;-49
2023/03/01 12:52:17;;;;;;;18.53;13.37;;;6.30;56.10;;;;;;6259470;28;20214;-51
2023/03/01 12:55:27;;;;;;;17.63;14.37;;;6.50;56.30;;;;;;6258648;28;20190;-49
2023/03/01 12:58:44;;;;;;;20.20;13.77;;;6.60;55.10;;;;;;6271174;28;20187;-52
2023/03/01 13:02:08;;;;;;;18.23;13.30;;;6.70;55.20;;;;;;6256346;28;20186;-59
2023/03/01 13:05:27;;;;;;;18.73;14.27;;;6.80;55.00;;;;;;6262227;28;20198;-53
2023/03/01 13:08:34;;;;;;;18.40;13.03;;;6.80;54.90;;;;;;6257633;28;20206;-51
2023/03/01 13:11:34;;;;;;;19.20;13.17;;;6.70;55.20;;;;;;6260489;28;20183;-52
2023/03/01 13:14:37;;;;;;;19.33;13.17;;;6.80;55.90;;;;;;6239030;28;20211;-52
2023/03/01 13:17:44;;;;;;;17.17;13.63;;;6.90;55.50;;;;;;6267045;28;20216;-49
2023/03/01 13:20:45;;;;;;;20.33;13.50;;;7.00;55.70;;;;;;6258008;28;20197;-51
2023/03/01 13:23:48;;;;;;;19.37;12.60;;;7.00;56.40;;;;;;6253828;28;20190;-52
2023/03/01 13:27:07;;;;;;;17.10;12.20;;;7.00;55.80;;;;;;6270960;28;20216;-53
2023/03/01 13:30:34;;;;;;;15.77;12.40;;;7.10;55.80;;;;;;6263166;28;20239;-51
2023/03/01 13:33:43;;;;;;;17.23;13.13;;;7.20;56.50;;;;;;6263878;28;20191;-49
2023/03/01 13:36:49;;;;;;;17.50;12.73;;;7.20;56.30;;;;;;6270101;28;20212;-50
2023/03/01 13:39:50;;;;;;;17.07;11.87;;;7.10;57.30;;;;;;6259634;28;20286;-50
2023/03/01 13:42:52;;;;;;;14.93;11.80;;;7.20;56.80;;;;;;6261213;28;20197;-53
2023/03/01 13:45:54;;;;;;;21.17;12.97;;;7.20;56.60;;;;;;6255049;28;20193;-52
2023/03/01 13:48:56;;;;;;;16.53;11.83;;;7.20;56.50;;;;;;6252371;28;20222;-53
2023/03/01 13:51:57;;;;;;;19.17;13.83;;;7.30;56.00;;;;;;6263076;28;20192;-50
2023/03/01 13:55:00;;;;;;;18.23;13.30;;;7.30;56.00;;;;;;6253939;28;20189;-59
2023/03/01 13:58:04;;;;;;;17.23;12.37;;;7.30;54.70;;;;;;6259514;28;20262;-59
2023/03/01 14:01:06;;;;;;;17.03;12.07;;;7.20;54.70;;;;;;6273101;28;20208;-54
2023/03/01 14:04:25;;;;;;;19.87;12.87;;;7.00;55.60;;;;;;6272235;28;20257;-58
2023/03/01 14:07:30;;;;;;;15.77;12.27;;;7.00;56.60;;;;;;6271401;28;20221;-58
2023/03/01 14:10:52;;;;;;;21.17;13.60;;;6.90;56.50;;;;;;6264625;28;20207;-59
2023/03/01 14:14:14;;;;;;;18.00;13.10;;;6.90;56.70;;;;;;6264284;28;20280;-56
2023/03/01 14:17:27;;;;;;;16.50;11.17;;;6.90;57.10;;;;;;6262486;28;20273;-59
2023/03/01 14:20:32;;;;;;;16.37;11.27;;;6.80;57.30;;;;;;6257797;28;20187;-50
2023/03/01 14:23:35;;;;;;;15.90;11.93;;;6.80;57.40;;;;;;6271917;28;20182;-51
2023/03/01 14:26:36;;;;;;;16.33;12.40;;;6.80;57.70;;;;;;6258268;28;20282;-49
2023/03/01 14:29:39;;;;;;;16.93;12.07;;;6.80;58.00;;;;;;6246520;28;20230;-53
2023/03/01 14:32:40;;;;;;;16.03;11.33;;;6.90;57.90;;;;;;6250258;28;20183;-53
2023/03/01 14:35:41;;;;;;;14.23;11.93;;;7.00;58.00;;;;;;6263121;28;20240;-52
2023/03/01 14:38:47;;;;;;;15.40;12.10;;;7.00;58.20;;;;;;6267576;28;20189;-49
2023/03/01 14:41:48;;;;;;;16.60;12.20;;;6.90;58.90;;;;;;6262219;28;20201;-50
2023/03/01 14:44:51;;;;;;;17.80;11.23;;;6.90;59.30;;;;;;6243665;28;20229;-51
2023/03/01 14:47:53;;;;;;;15.17;12.40;;;6.80;61.20;;;;;;6262416;28;20198;-48
2023/03/01 14:50:54;;;;;;;14.90;11.23;;;6.70;63.00;;;;;;6249958;28;20200;-50
2023/03/01 14:53:55;;;;;;;14.63;11.30;;;6.50;64.50;;;;;;6242746;28;20189;-53
2023/03/01 14:57:00;;;;;;;13.87;10.47;;;6.40;65.20;;;;;;6239386;28;20232;-50
2023/03/01 15:00:06;;;;;;;15.63;11.43;;;6.30;66.80;;;;;;6254125;28;20222;-49
2023/03/01 15:03:20;;;;;;;15.40;11.73;;;6.20;68.60;;;;;;6262893;28;20260;-50
2023/03/01 15:06:22;;;;;;;13.33;9.93;;;6.10;70.20;;;;;;6254162;28;20205;-49
2023/03/01 15:09:23;;;;;;;16.53;11.23;;;5.90;70.60;;;;;;6249023;28;20226;-52
2023/03/01 15:12:44;;;;;;;16.03;10.93;;;5.90;69.80;;;;;;6252737;28;20206;-49
2023/03/01 15:15:47;;;;;;;13.70;10.17;;;5.70;71.20;;;;;;6246300;28;20265;-51
2023/03/01 15:19:09;;;;;;;14.37;10.40;;;5.50;72.10;;;;;;6266337;28;20268;-53
2023/03/01 15:22:16;;;;;;;13.80;10.57;;;5.40;72.10;;;;;;6278275;28;20198;-52
2023/03/01 15:25:23;;;;;;;13.17;10.27;;;5.30;72.10;;;;;;6268217;28;20193;-50
2023/03/01 15:28:27;;;;;;;13.83;10.63;;;5.20;73.10;;;;;;6265178;28;20261;-51
2023/03/01 15:31:35;;;;;;;16.20;11.63;;;5.10;73.60;;;;;;6264413;28;20189;-50
2023/03/01 15:34:37;;;;;;;14.67;10.50;;;5.10;75.90;;;;;;6261716;28;20191;-51
2023/03/01 15:37:40;;;;;;;15.87;11.07;;;5.00;76.20;;;;;;6265169;28;20183;-52
2023/03/01 15:40:50;;;;;;;14.83;10.93;;;5.00;77.10;;;;;;6251009;28;20186;-51
2023/03/01 15:43:53;;;;;;;16.60;11.47;;;5.00;77.60;;;;;;6259277;28;20243;-50
2023/03/01 15:46:54;;;;;;;14.77;10.83;;;5.00;78.40;;;;;;6248984;28;20199;-51
2023/03/01 15:49:57;;;;;;;17.97;11.97;;;5.00;78.70;;;;;;6268044;28;20208;-53
2023/03/01 15:53:00;;;;;;;18.13;12.70;;;4.90;79.70;;;;;;6268050;28;20277;-51
2023/03/01 15:56:00;;;;;;;18.27;13.07;;;4.90;80.00;;;;;;6252942;28;20280;-51
2023/03/01 15:59:03;;;;;;;16.33;11.97;;;4.80;80.60;;;;;;6247021;28;20208;-50